sensor_id;sensor_type;location;lat;lon;timestamp;temperature;humidity
18147;DHT22;9199;48.832;9.182;2023-12-07T00:01:55;3.50;99.90
18147;DHT22;9199;48.832;9.182;2023-12-07T00:04:22;3.50;99.90
18147;DHT22;9199;48.832;9.182;2023-12-07T00:06:48;3.60;99.90
18147;DHT22;9199;48.832;9.182;2023-12-07T00:09:16;3.50;99.90
18147;DHT22;9199;48.832;9.182;2023-12-07T00:11:43;3.50;99.90
18147;DHT22;9199;48.832;9.182;2023-12-07T00:14:10;3.50;99.90
18147;DHT22;9199;48.832;9.182;2023-12-07T00:16:37;3.50;99.90
18147;DHT22;9199;48.832;9.182;2023-12-07T00:19:04;3.60;99.90
18147;DHT22;9199;48.832;9.182;2023-12-07T00:21:31;3.60;99.90
18147;DHT22;9199;48.832;9.182;2023-12-07T00:23:57;3.60;99.90
18147;DHT22;9199;48.832;9.182;2023-12-07T00:26:25;3.60;99.90
18147;DHT22;9199;48.832;9.182;2023-12-07T00:28:52;3.60;99.90
18147;DHT22;9199;48.832;9.182;2023-12-07T00:31:19;3.60;99.90
18147;DHT22;9199;48.832;9.182;2023-12-07T00:33:46;3.60;99.90
18147;DHT22;9199;48.832;9.182;2023-12-07T00:36:13;3.60;99.90
18147;DHT22;9199;48.832;9.182;2023-12-07T00:38:40;3.70;99.90
18147;DHT22;9199;48.832;9.182;2023-12-07T00:41:07;3.70;99.90
18147;DHT22;9199;48.832;9.182;2023-12-07T00:43:35;3.70;99.90
18147;DHT22;9199;48.832;9.182;2023-12-07T00:46:02;3.70;99.90
18147;DHT22;9199;48.832;9.182;2023-12-07T00:48:29;3.80;99.90
18147;DHT22;9199;48.832;9.182;2023-12-07T00:50:55;3.80;99.90
18147;DHT22;9199;48.832;9.182;2023-12-07T00:53:22;3.80;99.90
18147;DHT22;9199;48.832;9.182;2023-12-07T00:55:49;3.80;99.90
18147;DHT22;9199;48.832;9.182;2023-12-07T00:58:15;3.80;99.90
18147;DHT22;9199;48.832;9.182;2023-12-07T01:00:43;3.80;99.90
18147;DHT22;9199;48.832;9.182;2023-12-07T01:03:10;3.80;99.90
18147;DHT22;9199;48.832;9.182;2023-12-07T01:05:37;3.80;99.90
18147;DHT22;9199;48.832;9.182;2023-12-07T01:08:04;3.80;99.90
18147;DHT22;9199;48.832;9.182;2023-12-07T01:10:31;3.80;99.90
18147;DHT22;9199;48.832;9.182;2023-12-07T01:12:58;3.80;99.90
18147;DHT22;9199;48.832;9.182;2023-12-07T01:15:24;3.80;99.90
18147;DHT22;9199;48.832;9.182;2023-12-07T01:17:52;3.80;99.90
18147;DHT22;9199;48.832;9.182;2023-12-07T01:20:19;3.80;99.90
18147;DHT22;9199;48.832;9.182;2023-12-07T01:22:46;3.80;99.90
18147;DHT22;9199;48.832;9.182;2023-12-07T01:25:12;3.90;99.90
18147;DHT22;9199;48.832;9.182;2023-12-07T01:27:45;3.90;99.90
18147;DHT22;9199;48.832;9.182;2023-12-07T01:30:12;3.90;99.90
18147;DHT22;9199;48.832;9.182;2023-12-07T01:32:39;3.90;99.90
18147;DHT22;9199;48.832;9.182;2023-12-07T01:35:08;3.90;99.90
18147;DHT22;9199;48.832;9.182;2023-12-07T01:37:34;3.90;99.90
18147;DHT22;9199;48.832;9.182;2023-12-07T01:40:01;4.00;99.90
18147;DHT22;9199;48.832;9.182;2023-12-07T01:42:31;3.90;99.90
18147;DHT22;9199;48.832;9.182;2023-12-07T01:44:57;3.90;99.90
18147;DHT22;9199;48.832;9.182;2023-12-07T01:47:24;3.90;99.90
18147;DHT22;9199;48.832;9.182;2023-12-07T01:49:51;3.90;99.90
18147;DHT22;9199;48.832;9.182;2023-12-07T01:52:20;3.80;99.90
18147;DHT22;9199;48.832;9.182;2023-12-07T01:54:47;3.80;99.90
18147;DHT22;9199;48.832;9.182;2023-12-07T01:57:14;3.80;99.90
18147;DHT22;9199;48.832;9.182;2023-12-07T01:59:41;3.80;99.90
18147;DHT22;9199;48.832;9.182;2023-12-07T02:02:08;3.80;99.90
18147;DHT22;9199;48.832;9.182;2023-12-07T02:04:35;3.80;99.90
18147;DHT22;9199;48.832;9.182;2023-12-07T02:07:02;3.80;99.90
18147;DHT22;9199;48.832;9.182;2023-12-07T02:09:30;3.80;99.90
18147;DHT22;9199;48.832;9.182;2023-12-07T02:11:57;3.80;99.90
18147;DHT22;9199;48.832;9.182;2023-12-07T02:14:25;3.80;99.90
18147;DHT22;9199;48.832;9.182;2023-12-07T02:16:56;3.70;99.90
18147;DHT22;9199;48.832;9.182;2023-12-07T02:19:47;3.80;99.90
18147;DHT22;9199;48.832;9.182;2023-12-07T02:22:21;3.80;99.90
18147;DHT22;9199;48.832;9.182;2023-12-07T02:25:05;3.70;99.90
18147;DHT22;9199;48.832;9.182;2023-12-07T02:27:38;3.70;99.90
18147;DHT22;9199;48.832;9.182;2023-12-07T02:30:06;3.70;99.90
18147;DHT22;9199;48.832;9.182;2023-12-07T02:32:33;3.70;99.90
18147;DHT22;9199;48.832;9.182;2023-12-07T02:35:00;3.70;99.90
18147;DHT22;9199;48.832;9.182;2023-12-07T02:37:28;3.60;99.90
18147;DHT22;9199;48.832;9.182;2023-12-07T02:39:57;3.60;99.90
18147;DHT22;9199;48.832;9.182;2023-12-07T02:42:25;3.50;99.90
18147;DHT22;9199;48.832;9.182;2023-12-07T02:44:53;3.50;99.90
18147;DHT22;9199;48.832;9.182;2023-12-07T02:47:20;3.40;99.90
18147;DHT22;9199;48.832;9.182;2023-12-07T02:49:47;3.30;99.90
18147;DHT22;9199;48.832;9.182;2023-12-07T02:52:14;3.30;99.90
18147;DHT22;9199;48.832;9.182;2023-12-07T02:54:40;3.30;99.90
18147;DHT22;9199;48.832;9.182;2023-12-07T02:57:07;3.30;99.90
18147;DHT22;9199;48.832;9.182;2023-12-07T02:59:34;3.30;99.90
18147;DHT22;9199;48.832;9.182;2023-12-07T03:02:02;3.30;99.90
18147;DHT22;9199;48.832;9.182;2023-12-07T03:04:29;3.20;99.90
18147;DHT22;9199;48.832;9.182;2023-12-07T03:06:56;3.20;99.90
18147;DHT22;9199;48.832;9.182;2023-12-07T03:09:22;3.10;99.90
18147;DHT22;9199;48.832;9.182;2023-12-07T03:11:49;3.00;99.90
18147;DHT22;9199;48.832;9.182;2023-12-07T03:14:16;3.00;99.90
18147;DHT22;9199;48.832;9.182;2023-12-07T03:16:44;3.00;99.90
18147;DHT22;9199;48.832;9.182;2023-12-07T03:19:12;3.00;99.90
18147;DHT22;9199;48.832;9.182;2023-12-07T03:21:39;2.90;99.90
18147;DHT22;9199;48.832;9.182;2023-12-07T03:24:07;2.90;99.90
18147;DHT22;9199;48.832;9.182;2023-12-07T03:26:34;2.80;99.90
18147;DHT22;9199;48.832;9.182;2023-12-07T03:29:01;2.80;99.90
18147;DHT22;9199;48.832;9.182;2023-12-07T03:31:28;2.70;99.90
18147;DHT22;9199;48.832;9.182;2023-12-07T03:33:55;2.60;99.90
18147;DHT22;9199;48.832;9.182;2023-12-07T03:36:23;2.50;99.90
18147;DHT22;9199;48.832;9.182;2023-12-07T03:38:50;2.30;99.90
18147;DHT22;9199;48.832;9.182;2023-12-07T03:41:17;2.10;99.90
18147;DHT22;9199;48.832;9.182;2023-12-07T03:43:44;2.00;99.90
18147;DHT22;9199;48.832;9.182;2023-12-07T03:46:10;2.00;99.90
18147;DHT22;9199;48.832;9.182;2023-12-07T03:48:37;1.90;99.90
18147;DHT22;9199;48.832;9.182;2023-12-07T03:51:04;1.90;99.90
18147;DHT22;9199;48.832;9.182;2023-12-07T03:53:32;1.90;99.90
18147;DHT22;9199;48.832;9.182;2023-12-07T03:55:59;1.90;99.90
18147;DHT22;9199;48.832;9.182;2023-12-07T03:58:26;1.80;99.90
18147;DHT22;9199;48.832;9.182;2023-12-07T04:00:53;1.80;99.90
18147;DHT22;9199;48.832;9.182;2023-12-07T04:03:19;1.70;99.90
18147;DHT22;9199;48.832;9.182;2023-12-07T04:05:46;1.70;99.90
18147;DHT22;9199;48.832;9.182;2023-12-07T04:08:13;1.70;99.90
18147;DHT22;9199;48.832;9.182;2023-12-07T04:10:41;1.70;99.90
18147;DHT22;9199;48.832;9.182;2023-12-07T04:13:07;1.60;99.90
18147;DHT22;9199;48.832;9.182;2023-12-07T04:15:34;1.60;99.90
18147;DHT22;9199;48.832;9.182;2023-12-07T04:18:01;1.50;99.90
18147;DHT22;9199;48.832;9.182;2023-12-07T04:20:28;1.50;99.90
18147;DHT22;9199;48.832;9.182;2023-12-07T04:22:54;1.50;99.90
18147;DHT22;9199;48.832;9.182;2023-12-07T04:25:21;1.50;99.90
18147;DHT22;9199;48.832;9.182;2023-12-07T04:27:49;1.40;99.90
18147;DHT22;9199;48.832;9.182;2023-12-07T04:30:16;1.40;99.90
18147;DHT22;9199;48.832;9.182;2023-12-07T04:32:42;1.40;99.90
18147;DHT22;9199;48.832;9.182;2023-12-07T04:35:09;1.30;99.90
18147;DHT22;9199;48.832;9.182;2023-12-07T04:37:36;1.30;99.90
18147;DHT22;9199;48.832;9.182;2023-12-07T04:40:03;1.20;99.90
18147;DHT22;9199;48.832;9.182;2023-12-07T04:42:30;1.20;99.90
18147;DHT22;9199;48.832;9.182;2023-12-07T04:44:58;1.10;99.90
18147;DHT22;9199;48.832;9.182;2023-12-07T04:47:25;1.10;99.90
18147;DHT22;9199;48.832;9.182;2023-12-07T04:49:52;1.10;99.90
18147;DHT22;9199;48.832;9.182;2023-12-07T04:52:19;1.00;99.90
18147;DHT22;9199;48.832;9.182;2023-12-07T04:54:46;1.00;99.90
18147;DHT22;9199;48.832;9.182;2023-12-07T04:57:13;1.00;99.90
18147;DHT22;9199;48.832;9.182;2023-12-07T04:59:40;0.90;99.90
18147;DHT22;9199;48.832;9.182;2023-12-07T05:02:13;0.90;99.90
18147;DHT22;9199;48.832;9.182;2023-12-07T05:04:40;0.90;99.90
18147;DHT22;9199;48.832;9.182;2023-12-07T05:07:06;0.80;99.90
18147;DHT22;9199;48.832;9.182;2023-12-07T05:09:33;0.70;99.90
18147;DHT22;9199;48.832;9.182;2023-12-07T05:12:00;0.70;99.90
18147;DHT22;9199;48.832;9.182;2023-12-07T05:14:27;0.70;99.90
18147;DHT22;9199;48.832;9.182;2023-12-07T05:16:54;0.70;99.90
18147;DHT22;9199;48.832;9.182;2023-12-07T05:19:22;0.80;99.90
18147;DHT22;9199;48.832;9.182;2023-12-07T05:21:49;0.80;99.90
18147;DHT22;9199;48.832;9.182;2023-12-07T05:24:16;0.80;99.90
18147;DHT22;9199;48.832;9.182;2023-12-07T05:26:43;0.70;99.90
18147;DHT22;9199;48.832;9.182;2023-12-07T05:29:11;0.70;99.90
18147;DHT22;9199;48.832;9.182;2023-12-07T05:31:39;0.70;99.90
18147;DHT22;9199;48.832;9.182;2023-12-07T05:34:06;0.60;99.90
18147;DHT22;9199;48.832;9.182;2023-12-07T05:36:34;0.60;99.90
18147;DHT22;9199;48.832;9.182;2023-12-07T05:39:01;0.60;99.90
18147;DHT22;9199;48.832;9.182;2023-12-07T05:41:28;0.60;99.90
18147;DHT22;9199;48.832;9.182;2023-12-07T05:43:54;0.60;99.90
18147;DHT22;9199;48.832;9.182;2023-12-07T05:46:21;0.60;99.90
18147;DHT22;9199;48.832;9.182;2023-12-07T05:48:48;0.50;99.90
18147;DHT22;9199;48.832;9.182;2023-12-07T05:51:16;0.50;99.90
18147;DHT22;9199;48.832;9.182;2023-12-07T05:53:44;0.50;99.90
18147;DHT22;9199;48.832;9.182;2023-12-07T05:56:11;0.40;99.90
18147;DHT22;9199;48.832;9.182;2023-12-07T05:58:38;0.40;99.90
18147;DHT22;9199;48.832;9.182;2023-12-07T06:01:05;0.40;99.90
18147;DHT22;9199;48.832;9.182;2023-12-07T06:03:33;0.50;99.90
18147;DHT22;9199;48.832;9.182;2023-12-07T06:06:01;0.50;99.90
18147;DHT22;9199;48.832;9.182;2023-12-07T06:08:28;0.50;99.90
18147;DHT22;9199;48.832;9.182;2023-12-07T06:10:56;1.00;99.90
18147;DHT22;9199;48.832;9.182;2023-12-07T06:13:22;2.00;99.90
18147;DHT22;9199;48.832;9.182;2023-12-07T06:15:49;2.30;99.90
18147;DHT22;9199;48.832;9.182;2023-12-07T06:18:16;2.10;99.90
18147;DHT22;9199;48.832;9.182;2023-12-07T06:20:43;1.80;99.90
18147;DHT22;9199;48.832;9.182;2023-12-07T06:23:09;1.50;99.90
18147;DHT22;9199;48.832;9.182;2023-12-07T06:25:40;1.30;99.90
18147;DHT22;9199;48.832;9.182;2023-12-07T06:28:08;1.00;99.90
18147;DHT22;9199;48.832;9.182;2023-12-07T06:30:35;0.90;99.90
18147;DHT22;9199;48.832;9.182;2023-12-07T06:33:02;0.80;99.90
18147;DHT22;9199;48.832;9.182;2023-12-07T06:35:28;0.70;99.90
18147;DHT22;9199;48.832;9.182;2023-12-07T06:37:56;0.70;99.90
18147;DHT22;9199;48.832;9.182;2023-12-07T06:40:23;0.70;99.90
18147;DHT22;9199;48.832;9.182;2023-12-07T06:42:49;0.70;99.90
18147;DHT22;9199;48.832;9.182;2023-12-07T06:45:17;0.70;99.90
18147;DHT22;9199;48.832;9.182;2023-12-07T06:47:44;0.60;99.90
18147;DHT22;9199;48.832;9.182;2023-12-07T06:50:11;0.50;99.90
18147;DHT22;9199;48.832;9.182;2023-12-07T06:52:38;0.50;99.90
18147;DHT22;9199;48.832;9.182;2023-12-07T06:55:06;0.40;99.90
18147;DHT22;9199;48.832;9.182;2023-12-07T06:57:36;0.30;99.90
18147;DHT22;9199;48.832;9.182;2023-12-07T07:00:03;0.30;99.90
18147;DHT22;9199;48.832;9.182;2023-12-07T07:02:37;0.20;99.90
18147;DHT22;9199;48.832;9.182;2023-12-07T07:05:04;0.20;99.90
18147;DHT22;9199;48.832;9.182;2023-12-07T07:07:32;0.10;99.90
18147;DHT22;9199;48.832;9.182;2023-12-07T07:09:58;0.10;99.90
18147;DHT22;9199;48.832;9.182;2023-12-07T07:12:25;0.10;99.90
18147;DHT22;9199;48.832;9.182;2023-12-07T07:14:53;0.10;99.90
18147;DHT22;9199;48.832;9.182;2023-12-07T07:17:20;0.10;99.90
18147;DHT22;9199;48.832;9.182;2023-12-07T07:19:48;0.10;99.90
18147;DHT22;9199;48.832;9.182;2023-12-07T07:22:14;0.10;99.90
18147;DHT22;9199;48.832;9.182;2023-12-07T07:24:41;0.10;99.90
18147;DHT22;9199;48.832;9.182;2023-12-07T07:27:08;0.10;99.90
18147;DHT22;9199;48.832;9.182;2023-12-07T07:29:35;0.20;99.90
18147;DHT22;9199;48.832;9.182;2023-12-07T07:32:02;0.40;99.90
18147;DHT22;9199;48.832;9.182;2023-12-07T07:34:28;0.50;99.90
18147;DHT22;9199;48.832;9.182;2023-12-07T07:36:56;0.60;99.90
18147;DHT22;9199;48.832;9.182;2023-12-07T07:39:23;0.60;99.90
18147;DHT22;9199;48.832;9.182;2023-12-07T07:41:50;0.60;99.90
18147;DHT22;9199;48.832;9.182;2023-12-07T07:44:17;0.60;99.90
18147;DHT22;9199;48.832;9.182;2023-12-07T07:46:43;0.50;99.90
18147;DHT22;9199;48.832;9.182;2023-12-07T07:49:11;0.50;99.90
18147;DHT22;9199;48.832;9.182;2023-12-07T07:51:38;0.60;99.90
18147;DHT22;9199;48.832;9.182;2023-12-07T07:54:06;0.60;99.90
18147;DHT22;9199;48.832;9.182;2023-12-07T07:56:33;0.70;99.90
18147;DHT22;9199;48.832;9.182;2023-12-07T07:59:01;0.70;99.90
18147;DHT22;9199;48.832;9.182;2023-12-07T08:01:28;0.70;99.90
18147;DHT22;9199;48.832;9.182;2023-12-07T08:03:54;0.80;99.90
18147;DHT22;9199;48.832;9.182;2023-12-07T08:06:21;0.80;99.90
18147;DHT22;9199;48.832;9.182;2023-12-07T08:08:48;0.80;99.90
18147;DHT22;9199;48.832;9.182;2023-12-07T08:11:16;0.90;99.90
18147;DHT22;9199;48.832;9.182;2023-12-07T08:13:43;0.90;99.90
18147;DHT22;9199;48.832;9.182;2023-12-07T08:16:10;1.00;99.90
18147;DHT22;9199;48.832;9.182;2023-12-07T08:18:36;1.00;99.90
18147;DHT22;9199;48.832;9.182;2023-12-07T08:21:04;1.10;99.90
18147;DHT22;9199;48.832;9.182;2023-12-07T08:23:33;1.10;99.90
18147;DHT22;9199;48.832;9.182;2023-12-07T08:25:59;1.20;99.90
18147;DHT22;9199;48.832;9.182;2023-12-07T08:28:28;1.30;99.90
18147;DHT22;9199;48.832;9.182;2023-12-07T08:30:55;1.30;99.90
18147;DHT22;9199;48.832;9.182;2023-12-07T08:33:21;1.50;99.90
18147;DHT22;9199;48.832;9.182;2023-12-07T08:35:48;1.60;99.90
18147;DHT22;9199;48.832;9.182;2023-12-07T08:38:20;1.80;99.90
18147;DHT22;9199;48.832;9.182;2023-12-07T08:40:47;2.10;99.90
18147;DHT22;9199;48.832;9.182;2023-12-07T08:43:14;2.40;99.90
18147;DHT22;9199;48.832;9.182;2023-12-07T08:45:42;2.70;99.90
18147;DHT22;9199;48.832;9.182;2023-12-07T08:48:08;3.20;99.90
18147;DHT22;9199;48.832;9.182;2023-12-07T08:50:35;3.70;99.90
18147;DHT22;9199;48.832;9.182;2023-12-07T08:53:02;4.30;99.90
18147;DHT22;9199;48.832;9.182;2023-12-07T08:55:28;4.80;99.90
18147;DHT22;9199;48.832;9.182;2023-12-07T08:57:56;5.30;99.90
18147;DHT22;9199;48.832;9.182;2023-12-07T09:00:23;5.80;99.90
18147;DHT22;9199;48.832;9.182;2023-12-07T09:02:52;6.40;99.90
18147;DHT22;9199;48.832;9.182;2023-12-07T09:05:19;6.90;99.90
18147;DHT22;9199;48.832;9.182;2023-12-07T09:07:46;7.10;99.90
18147;DHT22;9199;48.832;9.182;2023-12-07T09:10:13;7.10;99.90
18147;DHT22;9199;48.832;9.182;2023-12-07T09:12:40;6.90;99.90
18147;DHT22;9199;48.832;9.182;2023-12-07T09:15:07;7.00;99.90
18147;DHT22;9199;48.832;9.182;2023-12-07T09:17:35;7.30;99.90
18147;DHT22;9199;48.832;9.182;2023-12-07T09:20:06;7.70;99.90
18147;DHT22;9199;48.832;9.182;2023-12-07T09:22:37;8.40;99.90
18147;DHT22;9199;48.832;9.182;2023-12-07T09:25:05;8.70;99.90
18147;DHT22;9199;48.832;9.182;2023-12-07T09:27:33;9.00;99.90
18147;DHT22;9199;48.832;9.182;2023-12-07T09:30:00;9.50;99.90
18147;DHT22;9199;48.832;9.182;2023-12-07T09:32:27;10.20;99.90
18147;DHT22;9199;48.832;9.182;2023-12-07T09:34:53;10.10;99.90
18147;DHT22;9199;48.832;9.182;2023-12-07T09:37:22;10.20;99.90
18147;DHT22;9199;48.832;9.182;2023-12-07T09:39:48;10.30;99.90
18147;DHT22;9199;48.832;9.182;2023-12-07T09:42:15;10.80;99.90
18147;DHT22;9199;48.832;9.182;2023-12-07T09:44:42;10.90;99.90
18147;DHT22;9199;48.832;9.182;2023-12-07T09:47:09;10.80;99.90
18147;DHT22;9199;48.832;9.182;2023-12-07T09:49:37;11.50;99.20
18147;DHT22;9199;48.832;9.182;2023-12-07T09:52:06;12.00;97.90
18147;DHT22;9199;48.832;9.182;2023-12-07T09:54:34;12.30;97.20
18147;DHT22;9199;48.832;9.182;2023-12-07T09:57:01;12.90;95.70
18147;DHT22;9199;48.832;9.182;2023-12-07T09:59:28;13.00;95.10
18147;DHT22;9199;48.832;9.182;2023-12-07T10:01:54;12.80;95.00
18147;DHT22;9199;48.832;9.182;2023-12-07T10:04:22;13.00;94.10
18147;DHT22;9199;48.832;9.182;2023-12-07T10:06:51;12.60;94.70
18147;DHT22;9199;48.832;9.182;2023-12-07T10:09:19;12.80;94.30
18147;DHT22;9199;48.832;9.182;2023-12-07T10:11:48;12.80;93.40
18147;DHT22;9199;48.832;9.182;2023-12-07T10:14:14;13.10;92.50
18147;DHT22;9199;48.832;9.182;2023-12-07T10:16:52;13.50;91.90
18147;DHT22;9199;48.832;9.182;2023-12-07T10:19:20;13.20;91.90
18147;DHT22;9199;48.832;9.182;2023-12-07T10:21:48;13.50;90.90
18147;DHT22;9199;48.832;9.182;2023-12-07T10:24:16;13.70;90.50
18147;DHT22;9199;48.832;9.182;2023-12-07T10:26:43;14.10;90.00
18147;DHT22;9199;48.832;9.182;2023-12-07T10:29:11;13.80;89.40
18147;DHT22;9199;48.832;9.182;2023-12-07T10:31:38;13.40;90.60
18147;DHT22;9199;48.832;9.182;2023-12-07T10:34:07;14.00;88.70
18147;DHT22;9199;48.832;9.182;2023-12-07T10:36:34;14.30;87.90
18147;DHT22;9199;48.832;9.182;2023-12-07T10:39:01;13.90;88.10
18147;DHT22;9199;48.832;9.182;2023-12-07T10:41:33;13.40;89.00
18147;DHT22;9199;48.832;9.182;2023-12-07T10:44:01;13.40;90.10
18147;DHT22;9199;48.832;9.182;2023-12-07T10:46:32;13.70;87.90
18147;DHT22;9199;48.832;9.182;2023-12-07T10:49:00;13.70;86.70
18147;DHT22;9199;48.832;9.182;2023-12-07T10:51:32;13.00;88.90
18147;DHT22;9199;48.832;9.182;2023-12-07T10:54:02;11.70;90.30
18147;DHT22;9199;48.832;9.182;2023-12-07T10:56:43;10.20;92.90
18147;DHT22;9199;48.832;9.182;2023-12-07T10:59:11;9.40;94.50
18147;DHT22;9199;48.832;9.182;2023-12-07T11:01:40;8.70;95.10
18147;DHT22;9199;48.832;9.182;2023-12-07T11:04:11;8.10;97.00
18147;DHT22;9199;48.832;9.182;2023-12-07T11:06:39;7.70;97.10
18147;DHT22;9199;48.832;9.182;2023-12-07T11:09:08;7.40;98.40
18147;DHT22;9199;48.832;9.182;2023-12-07T11:11:41;7.00;99.50
18147;DHT22;9199;48.832;9.182;2023-12-07T11:14:10;6.90;99.40
18147;DHT22;9199;48.832;9.182;2023-12-07T11:16:41;6.70;99.90
18147;DHT22;9199;48.832;9.182;2023-12-07T11:22:09;6.60;99.80
18147;DHT22;9199;48.832;9.182;2023-12-07T11:24:37;6.50;99.90
18147;DHT22;9199;48.832;9.182;2023-12-07T11:27:04;6.30;99.90
18147;DHT22;9199;48.832;9.182;2023-12-07T11:29:31;6.30;99.90
18147;DHT22;9199;48.832;9.182;2023-12-07T11:32:02;6.20;99.90
18147;DHT22;9199;48.832;9.182;2023-12-07T11:34:35;6.20;99.90
18147;DHT22;9199;48.832;9.182;2023-12-07T11:37:02;6.10;99.90
18147;DHT22;9199;48.832;9.182;2023-12-07T11:39:34;6.10;99.90
18147;DHT22;9199;48.832;9.182;2023-12-07T11:42:07;6.20;99.90
18147;DHT22;9199;48.832;9.182;2023-12-07T11:44:34;6.20;99.90
18147;DHT22;9199;48.832;9.182;2023-12-07T11:47:03;6.30;99.90
18147;DHT22;9199;48.832;9.182;2023-12-07T11:49:30;6.40;99.90
18147;DHT22;9199;48.832;9.182;2023-12-07T11:51:57;6.40;99.90
18147;DHT22;9199;48.832;9.182;2023-12-07T11:54:25;6.60;99.70
18147;DHT22;9199;48.832;9.182;2023-12-07T11:56:52;6.60;99.30
18147;DHT22;9199;48.832;9.182;2023-12-07T11:59:19;6.60;98.50
18147;DHT22;9199;48.832;9.182;2023-12-07T12:01:46;6.70;98.90
18147;DHT22;9199;48.832;9.182;2023-12-07T12:04:16;6.80;98.90
18147;DHT22;9199;48.832;9.182;2023-12-07T12:06:43;6.80;97.80
18147;DHT22;9199;48.832;9.182;2023-12-07T12:09:12;6.90;97.40
18147;DHT22;9199;48.832;9.182;2023-12-07T12:11:44;6.90;97.00
18147;DHT22;9199;48.832;9.182;2023-12-07T12:14:12;6.90;96.50
18147;DHT22;9199;48.832;9.182;2023-12-07T12:16:39;6.90;96.20
18147;DHT22;9199;48.832;9.182;2023-12-07T12:19:06;7.10;96.00
18147;DHT22;9199;48.832;9.182;2023-12-07T12:21:35;7.20;95.90
18147;DHT22;9199;48.832;9.182;2023-12-07T12:24:04;7.70;95.30
18147;DHT22;9199;48.832;9.182;2023-12-07T12:26:31;8.20;94.00
18147;DHT22;9199;48.832;9.182;2023-12-07T12:28:59;8.40;93.20
18147;DHT22;9199;48.832;9.182;2023-12-07T12:31:26;8.60;92.90
18147;DHT22;9199;48.832;9.182;2023-12-07T12:33:53;8.70;92.80
18147;DHT22;9199;48.832;9.182;2023-12-07T12:36:20;8.80;92.30
18147;DHT22;9199;48.832;9.182;2023-12-07T12:38:50;8.70;93.00
18147;DHT22;9199;48.832;9.182;2023-12-07T12:41:18;8.70;92.60
18147;DHT22;9199;48.832;9.182;2023-12-07T12:43:45;8.80;92.80
18147;DHT22;9199;48.832;9.182;2023-12-07T12:46:13;8.80;92.60
18147;DHT22;9199;48.832;9.182;2023-12-07T12:48:53;8.70;92.30
18147;DHT22;9199;48.832;9.182;2023-12-07T12:51:22;8.60;92.40
18147;DHT22;9199;48.832;9.182;2023-12-07T12:53:51;8.70;92.00
18147;DHT22;9199;48.832;9.182;2023-12-07T12:56:19;9.40;91.80
18147;DHT22;9199;48.832;9.182;2023-12-07T12:58:46;10.00;90.50
18147;DHT22;9199;48.832;9.182;2023-12-07T13:01:13;10.80;89.50
18147;DHT22;9199;48.832;9.182;2023-12-07T13:03:43;11.40;86.70
18147;DHT22;9199;48.832;9.182;2023-12-07T13:06:11;11.90;84.60
18147;DHT22;9199;48.832;9.182;2023-12-07T13:08:38;12.40;82.60
18147;DHT22;9199;48.832;9.182;2023-12-07T13:11:06;13.00;81.30
18147;DHT22;9199;48.832;9.182;2023-12-07T13:13:33;13.60;78.00
18147;DHT22;9199;48.832;9.182;2023-12-07T13:15:59;13.90;74.70
18147;DHT22;9199;48.832;9.182;2023-12-07T13:18:26;13.30;74.70
18147;DHT22;9199;48.832;9.182;2023-12-07T13:20:53;12.20;75.60
18147;DHT22;9199;48.832;9.182;2023-12-07T13:23:20;11.50;78.60
18147;DHT22;9199;48.832;9.182;2023-12-07T13:25:47;10.90;80.00
18147;DHT22;9199;48.832;9.182;2023-12-07T13:28:15;10.40;81.40
18147;DHT22;9199;48.832;9.182;2023-12-07T13:30:42;10.10;82.60
18147;DHT22;9199;48.832;9.182;2023-12-07T13:33:09;10.10;83.80
18147;DHT22;9199;48.832;9.182;2023-12-07T13:35:36;9.80;85.40
18147;DHT22;9199;48.832;9.182;2023-12-07T13:38:03;9.80;85.90
18147;DHT22;9199;48.832;9.182;2023-12-07T13:40:30;9.70;85.20
18147;DHT22;9199;48.832;9.182;2023-12-07T13:42:57;9.60;85.70
18147;DHT22;9199;48.832;9.182;2023-12-07T13:45:24;9.50;86.00
18147;DHT22;9199;48.832;9.182;2023-12-07T13:47:51;9.40;86.60
18147;DHT22;9199;48.832;9.182;2023-12-07T13:50:18;9.10;86.70
18147;DHT22;9199;48.832;9.182;2023-12-07T13:52:45;8.90;87.10
18147;DHT22;9199;48.832;9.182;2023-12-07T13:55:12;8.70;87.90
18147;DHT22;9199;48.832;9.182;2023-12-07T13:57:39;8.50;88.70
18147;DHT22;9199;48.832;9.182;2023-12-07T14:00:07;8.30;90.10
18147;DHT22;9199;48.832;9.182;2023-12-07T14:02:39;8.20;90.40
18147;DHT22;9199;48.832;9.182;2023-12-07T14:05:07;8.10;90.30
18147;DHT22;9199;48.832;9.182;2023-12-07T14:07:34;8.10;90.40
18147;DHT22;9199;48.832;9.182;2023-12-07T14:10:01;7.90;90.30
18147;DHT22;9199;48.832;9.182;2023-12-07T14:12:27;7.80;90.50
18147;DHT22;9199;48.832;9.182;2023-12-07T14:14:54;7.60;90.40
18147;DHT22;9199;48.832;9.182;2023-12-07T14:17:22;7.60;90.80
18147;DHT22;9199;48.832;9.182;2023-12-07T14:19:50;7.50;91.30
18147;DHT22;9199;48.832;9.182;2023-12-07T14:22:19;7.30;90.70
18147;DHT22;9199;48.832;9.182;2023-12-07T14:24:46;7.30;90.90
18147;DHT22;9199;48.832;9.182;2023-12-07T14:27:13;7.20;90.40
18147;DHT22;9199;48.832;9.182;2023-12-07T14:29:41;7.10;88.90
18147;DHT22;9199;48.832;9.182;2023-12-07T14:32:07;7.00;88.60
18147;DHT22;9199;48.832;9.182;2023-12-07T14:34:35;6.90;88.30
18147;DHT22;9199;48.832;9.182;2023-12-07T14:37:03;6.80;88.10
18147;DHT22;9199;48.832;9.182;2023-12-07T14:39:31;6.70;87.70
18147;DHT22;9199;48.832;9.182;2023-12-07T14:41:57;6.60;86.40
18147;DHT22;9199;48.832;9.182;2023-12-07T14:44:24;6.50;86.10
18147;DHT22;9199;48.832;9.182;2023-12-07T14:46:51;6.40;85.80
18147;DHT22;9199;48.832;9.182;2023-12-07T14:49:18;6.30;86.10
18147;DHT22;9199;48.832;9.182;2023-12-07T14:51:47;6.20;87.00
18147;DHT22;9199;48.832;9.182;2023-12-07T14:54:16;6.10;87.20
18147;DHT22;9199;48.832;9.182;2023-12-07T14:56:43;6.10;87.60
18147;DHT22;9199;48.832;9.182;2023-12-07T14:59:10;6.00;87.80
18147;DHT22;9199;48.832;9.182;2023-12-07T15:01:37;5.90;89.70
18147;DHT22;9199;48.832;9.182;2023-12-07T15:04:05;5.80;89.10
18147;DHT22;9199;48.832;9.182;2023-12-07T15:06:32;5.70;89.50
18147;DHT22;9199;48.832;9.182;2023-12-07T15:09:00;5.60;90.20
18147;DHT22;9199;48.832;9.182;2023-12-07T15:11:32;5.60;90.40
18147;DHT22;9199;48.832;9.182;2023-12-07T15:14:00;5.50;90.30
18147;DHT22;9199;48.832;9.182;2023-12-07T15:16:28;5.30;90.50
18147;DHT22;9199;48.832;9.182;2023-12-07T15:18:55;5.20;90.70
18147;DHT22;9199;48.832;9.182;2023-12-07T15:21:22;5.20;90.90
18147;DHT22;9199;48.832;9.182;2023-12-07T15:23:49;5.10;90.70
18147;DHT22;9199;48.832;9.182;2023-12-07T15:26:16;5.10;90.50
18147;DHT22;9199;48.832;9.182;2023-12-07T15:28:44;5.00;90.50
18147;DHT22;9199;48.832;9.182;2023-12-07T15:31:12;4.90;90.40
18147;DHT22;9199;48.832;9.182;2023-12-07T15:33:38;4.90;90.40
18147;DHT22;9199;48.832;9.182;2023-12-07T15:36:06;4.80;90.30
18147;DHT22;9199;48.832;9.182;2023-12-07T15:38:32;4.80;90.40
18147;DHT22;9199;48.832;9.182;2023-12-07T15:40:59;4.70;90.50
18147;DHT22;9199;48.832;9.182;2023-12-07T15:43:28;4.70;90.70
18147;DHT22;9199;48.832;9.182;2023-12-07T15:45:56;4.60;90.80
18147;DHT22;9199;48.832;9.182;2023-12-07T15:48:23;4.60;91.10
18147;DHT22;9199;48.832;9.182;2023-12-07T15:50:50;4.60;91.30
18147;DHT22;9199;48.832;9.182;2023-12-07T15:53:16;4.50;91.50
18147;DHT22;9199;48.832;9.182;2023-12-07T15:55:43;4.40;91.80
18147;DHT22;9199;48.832;9.182;2023-12-07T15:58:10;4.30;91.80
18147;DHT22;9199;48.832;9.182;2023-12-07T16:00:37;4.20;91.90
18147;DHT22;9199;48.832;9.182;2023-12-07T16:03:06;4.20;91.70
18147;DHT22;9199;48.832;9.182;2023-12-07T16:05:33;4.10;91.80